Bateen Airport
OMAD : now visible

Airfield :











YOU CAN JOIN US ON...

 
LOGIN :

Register | Disclaimer

   EN    FR    IT 

 









Legend :    VFR   Marginal VFR   IFR   Intensive IFR   Very Intensive IFR
Visi :
Ceiling :
>= 8 km
>= 3000ft
5 to 8 km
1000 to 3000 ft
1500m to 5 km
500 to 1000 ft
800 to 1500m
200 to 500 ft
< 800m
< 200 ft
Symbols :   Thunderstorms  Fog  Heavy snow  Heavy precipitations  Wind > 20 kt






- Airport Elevation : 16 ft
- IATA code : AZI


OMAD - Bateen

CURRENT METAR :
  • 210700Z 34008KT 310V010 CAVOK 23/06 Q1018 NOSIG

EXPIRED METARs :
  • 210600Z 32009KT CAVOK 22/08 Q1018 NOSIG
  • 210500Z 32005KT 9999 FEW045 21/10 Q1018 NOSIG

TAF TAF OMAD
Valid from the 21 at 06:00 until the 22 at 12:00 UTC


210500Z 2106/2212 32010KT 8000 FEW045
BECMG 2119/2121 12005KT
PROB30
TEMPO 2200/2204 4000 HZ



MET'MAP, your aeronautical weather chart ! - Copyright ORBIFLY December 2007 - Disclaimer

ORBIFLY MET'MAP TEAM :

Programming & Development : Alexandra Zaïnal
Concept & original design : Baudouin d'Aumeries
Assistance for programming : Marc-Olivier Méhu
Technical & hardware support : Manuel Goepfert

Contact : metmap@orbifly.com




SOURCES & CREDITS :

   NOAA       Earth
Advisory